Time;durP1;ratioP1;P1;durP2;ratioP2;P2;SDS_P1;SDS_P2;PMS_P1;PMS_P2;Temp;Humidity;BMP_temperature;BMP_pressure;BME280_temperature;BME280_humidity;BME280_pressure;Samples;Min_cycle;Max_cycle;Signal;HPM_P1;HPM_P2
2021/01/15 00:00:04;;;;;;;;;;;;;;;5.37;96.06;101217.53;6169363;23;19947;-76
2021/01/15 00:02:30;;;;;;;;;;;;;;;5.36;96.37;101217.78;6167967;23;19914;-76
2021/01/15 00:04:58;;;;;;;;;;;;;;;5.37;96.34;101220.28;6194635;23;19974;-76
2021/01/15 00:07:23;;;;;;;;;;;;;;;5.38;96.23;101205.47;6195967;23;20317;-76
2021/01/15 00:09:49;;;;;;;;;;;;;;;5.38;96.52;101215.66;6170142;23;19979;-76
2021/01/15 00:12:14;;;;;;;;;;;;;;;5.38;96.52;101218.41;6169485;23;19914;-76
2021/01/15 00:14:40;;;;;;;;;;;;;;;5.41;96.66;101215.16;6144938;23;19915;-76
2021/01/15 00:17:05;;;;;;;;;;;;;;;5.44;96.60;101209.16;6194727;23;20273;-75
2021/01/15 00:19:30;;;;;;;;;;;;;;;5.44;96.52;101209.16;6170143;23;19998;-75
2021/01/15 00:21:56;;;;;;;;;;;;;;;5.41;96.66;101217.91;6220967;23;19904;-75
2021/01/15 00:24:21;;;;;;;;;;;;;;;5.43;96.51;101210.22;6169765;23;19983;-75
2021/01/15 00:26:49;;;;;;;;;;;;;;;5.44;96.78;101219.34;6195397;23;19904;-75
2021/01/15 00:29:15;;;;;;;;;;;;;;;5.45;96.84;101210.81;6220956;23;19911;-75
2021/01/15 00:31:41;;;;;;;;;;;;;;;5.48;96.93;101218.59;6194271;23;19908;-75
2021/01/15 00:34:07;;;;;;;;;;;;;;;5.48;96.97;101221.34;6220791;23;20236;-75
2021/01/15 00:36:33;;;;;;;;;;;;;;;5.51;97.00;101220.88;6193883;23;19955;-76
2021/01/15 00:38:58;;;;;;;;;;;;;;;5.54;97.04;101219.53;6194414;23;20309;-75
2021/01/15 00:41:23;;;;;;;;;;;;;;;5.56;96.97;101226.50;6194298;23;19903;-75
2021/01/15 00:43:49;;;;;;;;;;;;;;;5.59;97.23;101216.91;6169108;23;19958;-76
2021/01/15 00:46:27;;;;;;;;;;;;;;;5.63;97.18;101242.91;6221017;23;19904;-75
2021/01/15 00:48:53;;;;;;;;;;;;;;;5.65;97.25;101239.88;6194474;23;19912;-75
2021/01/15 00:51:19;;;;;;;;;;;;;;;5.69;97.44;101247.44;6220553;23;19912;-76
2021/01/15 00:53:44;;;;;;;;;;;;;;;5.71;97.97;101247.19;6200104;23;19939;-75
2021/01/15 00:56:12;;;;;;;;;;;;;;;5.72;98.02;101257.13;6139978;23;20340;-76
2021/01/15 00:58:38;;;;;;;;;;;;;;;5.75;98.28;101257.47;6140488;23;19904;-75
2021/01/15 01:01:03;;;;;;;;;;;;;;;5.77;98.30;101268.28;6190463;23;19904;-75
2021/01/15 01:03:28;;;;;;;;;;;;;;;5.76;98.73;101272.09;6189987;23;19967;-75
2021/01/15 01:05:54;;;;;;;;;;;;;;;5.74;98.56;101286.13;6190907;23;19931;-75
2021/01/15 01:08:19;;;;;;;;;;;;;;;5.76;98.65;101280.38;6164644;23;19908;-75
2021/01/15 01:10:45;;;;;;;;;;;;;;;5.77;98.64;101279.31;6139425;23;19904;-75
2021/01/15 01:13:10;;;;;;;;;;;;;;;5.75;98.65;101278.69;6164211;23;19995;-75
2021/01/15 01:15:35;;;;;;;;;;;;;;;5.70;98.72;101284.94;6139645;23;19931;-75
2021/01/15 01:18:01;;;;;;;;;;;;;;;5.73;98.66;101280.84;6164046;23;19932;-75
2021/01/15 01:20:26;;;;;;;;;;;;;;;5.68;98.88;101283.50;6139577;23;19931;-75
2021/01/15 01:22:52;;;;;;;;;;;;;;;5.70;98.82;101284.94;6190213;23;19908;-75
2021/01/15 01:25:19;;;;;;;;;;;;;;;5.71;98.95;101285.75;6140313;23;20298;-75
2021/01/15 01:27:45;;;;;;;;;;;;;;;5.65;99.10;101284.81;6164457;23;19904;-75
2021/01/15 01:30:10;;;;;;;;;;;;;;;5.64;99.03;101285.91;6163340;23;19987;-75
2021/01/15 01:32:36;;;;;;;;;;;;;;;5.64;99.03;101298.84;6189695;23;19909;-75
2021/01/15 01:35:03;;;;;;;;;;;;;;;5.64;99.15;101301.63;6115084;23;19908;-76
2021/01/15 01:37:29;;;;;;;;;;;;;;;5.58;99.04;101312.50;6189814;23;19904;-76
2021/01/15 01:39:54;;;;;;;;;;;;;;;5.57;99.02;101313.59;6114944;23;20290;-75
2021/01/15 01:42:20;;;;;;;;;;;;;;;5.61;98.53;101316.72;6139440;23;19931;-76
2021/01/15 01:44:47;;;;;;;;;;;;;;;5.55;98.79;101317.69;6164118;23;19904;-76
2021/01/15 01:47:13;;;;;;;;;;;;;;;5.55;98.89;101313.00;6164034;23;19947;-76
2021/01/15 01:49:38;;;;;;;;;;;;;;;5.53;98.61;101317.06;6139544;23;20002;-75
2021/01/15 01:52:04;;;;;;;;;;;;;;;5.48;98.79;101309.53;6139038;23;20338;-75
2021/01/15 01:54:31;;;;;;;;;;;;;;;5.49;98.62;101321.38;6168667;23;19951;-75
2021/01/15 01:56:56;;;;;;;;;;;;;;;5.47;98.73;101327.13;6194074;23;19946;-75
2021/01/15 01:59:22;;;;;;;;;;;;;;;5.46;98.70;101330.97;6193657;23;19904;-75
2021/01/15 02:01:47;;;;;;;;;;;;;;;5.46;98.76;101343.91;6168349;23;20424;-75
2021/01/15 02:04:12;;;;;;;;;;;;;;;5.44;98.62;101340.56;6220223;23;19904;-75
2021/01/15 02:06:41;;;;;;;;;;;;;;;5.42;98.51;101332.53;6169475;23;19911;-75
2021/01/15 02:09:07;;;;;;;;;;;;;;;5.43;98.50;101347.13;6194422;23;19904;-76
2021/01/15 02:11:52;;;;;;;;;;;;;;;5.43;98.36;101347.13;6193409;23;20010;-75
2021/01/15 02:14:21;;;;;;;;;;;;;;;5.35;98.39;101348.34;6192300;23;19978;-75
2021/01/15 02:16:47;;;;;;;;;;;;;;;5.36;98.24;101352.78;6193403;23;19908;-75
2021/01/15 02:19:22;;;;;;;;;;;;;;;5.33;98.45;101350.50;6193825;23;19914;-75
2021/01/15 02:21:47;;;;;;;;;;;;;;;5.30;98.30;101360.06;6220102;23;19931;-75
2021/01/15 02:24:14;;;;;;;;;;;;;;;5.34;97.97;101357.69;6168587;23;19904;-75
2021/01/15 02:26:49;;;;;;;;;;;;;;;5.29;98.14;101363.06;6144700;23;19943;-75
2021/01/15 02:29:20;;;;;;;;;;;;;;;5.29;98.44;101374.06;6220276;23;19915;-76
2021/01/15 02:31:45;;;;;;;;;;;;;;;5.28;98.51;101366.91;6193187;23;19911;-75
2021/01/15 02:34:29;;;;;;;;;;;;;;;5.29;98.33;101369.44;6219945;23;19904;-75
2021/01/15 02:37:06;;;;;;;;;;;;;;;5.26;98.72;101369.03;6168055;23;19926;-75
2021/01/15 02:39:37;;;;;;;;;;;;;;;5.27;98.71;101370.75;6194411;23;19987;-75
2021/01/15 02:42:03;;;;;;;;;;;;;;;5.26;98.79;101380.06;6194176;23;19904;-75
2021/01/15 02:44:28;;;;;;;;;;;;;;;5.25;98.13;101383.91;6168740;23;20305;-75
2021/01/15 02:46:59;;;;;;;;;;;;;;;5.22;98.21;101396.22;6168135;23;20264;-76
2021/01/15 02:49:24;;;;;;;;;;;;;;;5.21;98.20;101394.56;6194074;23;19910;-75
2021/01/15 02:51:52;;;;;;;;;;;;;;;5.20;97.71;101403.03;6145172;23;19941;-75
2021/01/15 02:54:18;;;;;;;;;;;;;;;5.15;98.05;101399.09;6168473;23;19919;-75
2021/01/15 02:56:43;;;;;;;;;;;;;;;5.18;97.96;101410.69;6144289;23;19979;-75
2021/01/15 02:59:09;;;;;;;;;;;;;;;5.17;97.22;101409.03;6143903;23;19904;-75
2021/01/15 03:01:57;;;;;;;;;;;;;;;5.12;97.24;101409.72;6167765;23;19908;-75
2021/01/15 03:04:32;;;;;;;;;;;;;;;5.09;97.46;101413.78;6169314;23;19931;-75
2021/01/15 03:06:58;;;;;;;;;;;;;;;5.08;97.83;101405.78;6169103;23;19904;-75
2021/01/15 03:09:29;;;;;;;;;;;;;;;5.03;97.35;101413.91;6169681;23;19907;-75
2021/01/15 03:11:54;;;;;;;;;;;;;;;5.03;97.66;101409.22;6193494;23;19914;-75
2021/01/15 03:14:20;;;;;;;;;;;;;;;5.04;97.89;101416.44;6168708;23;19908;-75
2021/01/15 03:16:46;;;;;;;;;;;;;;;5.04;97.63;101424.69;6143510;23;19908;-75
2021/01/15 03:19:12;;;;;;;;;;;;;;;5.03;97.92;101414.72;6193321;23;20298;-76
2021/01/15 03:21:39;;;;;;;;;;;;;;;5.01;97.63;101422.38;6145291;23;19908;-75
2021/01/15 03:24:08;;;;;;;;;;;;;;;5.02;97.75;101426.00;6169073;23;19904;-75
2021/01/15 03:26:33;;;;;;;;;;;;;;;5.03;97.60;101430.41;6168737;23;19904;-76
2021/01/15 03:29:01;;;;;;;;;;;;;;;5.01;97.89;101427.88;6169086;23;19904;-75
2021/01/15 03:31:27;;;;;;;;;;;;;;;4.99;97.80;101427.31;6194778;23;20321;-75
2021/01/15 03:33:52;;;;;;;;;;;;;;;4.96;97.69;101416.78;6221686;23;20053;-75
2021/01/15 03:36:20;;;;;;;;;;;;;;;4.97;97.77;101421.19;6169098;23;19982;-76
2021/01/15 03:38:46;;;;;;;;;;;;;;;4.95;97.62;101417.81;6170731;23;20030;-75
2021/01/15 03:41:11;;;;;;;;;;;;;;;4.94;96.92;101416.16;6195072;23;19904;-76
2021/01/15 03:43:39;;;;;;;;;;;;;;;4.87;97.34;101420.91;6170443;23;19908;-75
2021/01/15 03:46:04;;;;;;;;;;;;;;;4.85;97.49;101425.81;6219622;23;19927;-75
2021/01/15 03:48:30;;;;;;;;;;;;;;;4.82;97.71;101426.25;6169727;23;19912;-75
2021/01/15 03:50:55;;;;;;;;;;;;;;;4.78;97.44;101427.81;6170197;23;20645;-76
2021/01/15 03:53:21;;;;;;;;;;;;;;;4.76;97.95;101424.44;6195109;23;19935;-75
2021/01/15 03:55:47;;;;;;;;;;;;;;;4.74;98.04;101421.94;6221262;23;19957;-75
2021/01/15 03:58:12;;;;;;;;;;;;;;;4.69;97.91;101428.13;6221249;23;19908;-75
2021/01/15 04:00:37;;;;;;;;;;;;;;;4.70;97.93;101431.72;6221366;23;19908;-75
2021/01/15 04:03:03;;;;;;;;;;;;;;;4.64;97.72;101433.50;6194519;23;19910;-75
2021/01/15 04:05:29;;;;;;;;;;;;;;;4.60;97.73;101442.47;6194770;23;20281;-76
2021/01/15 04:07:57;;;;;;;;;;;;;;;4.57;98.04;101449.28;6170049;23;20236;-76
2021/01/15 04:10:22;;;;;;;;;;;;;;;4.56;98.20;101455.81;6221214;23;20313;-75
2021/01/15 04:12:48;;;;;;;;;;;;;;;4.54;98.13;101455.25;6195349;23;19977;-76
2021/01/15 04:15:13;;;;;;;;;;;;;;;4.53;98.16;101459.03;6194187;23;19903;-75
2021/01/15 04:17:39;;;;;;;;;;;;;;;4.51;98.17;101460.34;6169522;23;19910;-75
2021/01/15 04:20:07;;;;;;;;;;;;;;;4.51;98.37;101466.69;6221141;23;19903;-75
2021/01/15 04:22:35;;;;;;;;;;;;;;;4.52;98.36;101473.88;6170158;23;19912;-76
2021/01/15 04:25:01;;;;;;;;;;;;;;;4.52;98.35;101478.53;6144923;23;20233;-76
2021/01/15 04:27:30;;;;;;;;;;;;;;;4.54;98.32;101477.25;6194813;23;19908;-76
2021/01/15 04:29:55;;;;;;;;;;;;;;;4.54;98.47;101485.50;6144986;23;19910;-76
2021/01/15 04:32:21;;;;;;;;;;;;;;;4.56;98.33;101479.75;6221172;23;19986;-76
2021/01/15 04:34:46;;;;;;;;;;;;;;;4.55;98.42;101483.59;6220992;23;19915;-76
2021/01/15 04:37:15;;;;;;;;;;;;;;;4.51;98.54;101476.84;6193448;23;19990;-76
2021/01/15 04:39:43;;;;;;;;;;;;;;;4.53;98.26;101482.97;6169386;23;19986;-76
2021/01/15 04:42:11;;;;;;;;;;;;;;;4.48;98.33;101476.25;6194999;23;19923;-76
2021/01/15 04:44:36;;;;;;;;;;;;;;;4.50;98.30;101483.44;6194657;23;19931;-76
2021/01/15 04:47:02;;;;;;;;;;;;;;;4.51;98.39;101491.44;6168982;23;19912;-75
2021/01/15 04:49:28;;;;;;;;;;;;;;;4.48;98.34;101486.41;6220778;23;19904;-75
2021/01/15 04:51:55;;;;;;;;;;;;;;;4.48;98.39;101489.16;6194837;23;19915;-75
2021/01/15 04:54:23;;;;;;;;;;;;;;;4.52;98.34;101495.88;6194406;23;19911;-75
2021/01/15 04:56:49;;;;;;;;;;;;;;;4.52;98.46;101506.88;6169898;23;19903;-75
2021/01/15 04:59:15;;;;;;;;;;;;;;;4.53;98.44;101508.56;6144593;23;19930;-75
2021/01/15 05:01:43;;;;;;;;;;;;;;;4.54;98.41;101499.25;6145262;23;19934;-75
2021/01/15 05:04:12;;;;;;;;;;;;;;;4.54;98.42;101498.38;6169424;23;19982;-75
2021/01/15 05:06:48;;;;;;;;;;;;;;;4.55;98.49;101497.34;6169405;23;19931;-76
2021/01/15 05:09:21;;;;;;;;;;;;;;;4.53;98.34;101502.22;6220508;23;19908;-76
2021/01/15 05:11:50;;;;;;;;;;;;;;;4.53;98.39;101513.22;6168087;23;19931;-76
2021/01/15 05:14:18;;;;;;;;;;;;;;;4.53;98.46;101507.72;6145661;23;19942;-76
2021/01/15 05:16:44;;;;;;;;;;;;;;;4.53;98.54;101513.22;6168654;23;19904;-76
2021/01/15 05:19:15;;;;;;;;;;;;;;;4.53;98.18;101507.72;6145006;23;19908;-76
2021/01/15 05:21:41;;;;;;;;;;;;;;;4.46;98.04;101513.31;6169437;23;19904;-76
2021/01/15 05:24:07;;;;;;;;;;;;;;;4.48;98.00;101517.53;6194213;23;19903;-76
2021/01/15 05:26:40;;;;;;;;;;;;;;;4.46;97.96;101527.06;6193904;23;20370;-75
2021/01/15 05:29:15;;;;;;;;;;;;;;;4.45;98.12;101522.63;6169185;23;19904;-76
2021/01/15 05:32:04;;;;;;;;;;;;;;;4.46;98.25;101516.06;6191657;23;19983;-76
2021/01/15 05:34:39;;;;;;;;;;;;;;;4.47;98.10;101520.50;6169324;23;19962;-76
2021/01/15 05:37:05;;;;;;;;;;;;;;;4.47;98.21;101524.06;6170472;23;20301;-76
2021/01/15 05:39:30;;;;;;;;;;;;;;;4.46;98.12;101532.56;6194039;23;19926;-76
2021/01/15 05:42:09;;;;;;;;;;;;;;;4.47;98.38;101534.25;6168488;23;19903;-76
2021/01/15 05:44:43;;;;;;;;;;;;;;;4.43;98.24;101528.38;6148435;23;19903;-75
2021/01/15 05:47:08;;;;;;;;;;;;;;;4.38;98.25;101541.13;6192778;23;19911;-76
2021/01/15 05:49:34;;;;;;;;;;;;;;;4.40;98.48;101541.72;6193091;23;19935;-76
2021/01/15 05:52:09;;;;;;;;;;;;;;;4.36;98.28;101544.09;6193003;23;19919;-76
2021/01/15 05:54:34;;;;;;;;;;;;;;;4.36;98.32;101546.84;6168942;23;19912;-76
2021/01/15 05:57:00;;;;;;;;;;;;;;;4.36;98.20;101549.59;6169134;23;19915;-76
2021/01/15 05:59:26;;;;;;;;;;;;;;;4.35;98.22;101549.81;6144406;23;19911;-76
2021/01/15 06:01:52;;;;;;;;;;;;;;;4.35;98.25;101555.34;6168348;23;19930;-76
2021/01/15 06:04:18;;;;;;;;;;;;;;;4.38;98.26;101554.88;6168792;23;19903;-76
2021/01/15 06:06:43;;;;;;;;;;;;;;;4.37;98.21;101564.16;6168912;23;19931;-75
2021/01/15 06:09:09;;;;;;;;;;;;;;;4.32;97.81;101567.63;6220488;23;19923;-76
2021/01/15 06:11:39;;;;;;;;;;;;;;;4.34;98.17;101567.38;6218858;23;20055;-76
2021/01/15 06:14:16;;;;;;;;;;;;;;;4.31;98.40;101570.59;6168822;23;19910;-75
2021/01/15 06:16:41;;;;;;;;;;;;;;;4.25;97.79;101566.84;6219614;23;19951;-76
2021/01/15 06:19:07;;;;;;;;;;;;;;;4.25;97.64;101572.34;6193804;23;19903;-76
2021/01/15 06:21:33;;;;;;;;;;;;;;;4.21;97.46;101577.44;6168982;23;19991;-76
2021/01/15 06:23:58;;;;;;;;;;;;;;;4.22;97.35;101576.38;6193455;23;19904;-76
2021/01/15 06:26:39;;;;;;;;;;;;;;;4.21;97.83;101577.44;6220022;23;19904;-76
2021/01/15 06:29:11;;;;;;;;;;;;;;;4.20;97.80;101570.25;6193923;23;19911;-75
2021/01/15 06:31:43;;;;;;;;;;;;;;;4.18;97.73;101572.41;6193675;23;19930;-76
2021/01/15 06:34:09;;;;;;;;;;;;;;;4.16;97.60;101570.94;6193327;23;19927;-76
2021/01/15 06:36:44;;;;;;;;;;;;;;;4.17;97.67;101581.69;6167638;23;19904;-76
2021/01/15 06:39:09;;;;;;;;;;;;;;;4.17;97.70;101572.63;6168301;23;19904;-76
2021/01/15 06:41:43;;;;;;;;;;;;;;;4.14;97.82;101570.31;6220535;23;19918;-76
2021/01/15 06:44:14;;;;;;;;;;;;;;;4.13;97.57;101574.16;6193386;23;19903;-76
2021/01/15 06:46:41;;;;;;;;;;;;;;;4.12;97.16;101573.28;6193652;23;19907;-76
2021/01/15 06:49:06;;;;;;;;;;;;;;;4.11;97.48;101584.53;6168437;23;19987;-76
2021/01/15 06:51:36;;;;;;;;;;;;;;;4.08;97.21;101582.22;6144648;23;19915;-76
2021/01/15 06:54:08;;;;;;;;;;;;;;;4.08;97.09;101583.06;6188405;23;19916;-75
2021/01/15 06:56:37;;;;;;;;;;;;;;;4.09;96.53;101584.72;6139388;23;20005;-75
2021/01/15 06:59:02;;;;;;;;;;;;;;;4.05;96.96;101590.94;6162831;23;19923;-75
2021/01/15 07:01:38;;;;;;;;;;;;;;;4.06;96.89;101595.34;6189614;23;19912;-76
2021/01/15 07:04:17;;;;;;;;;;;;;;;4.01;96.65;101601.50;6165144;23;20274;-76
2021/01/15 07:07:05;;;;;;;;;;;;;;;4.00;96.08;101608.91;6166103;23;19908;-76
2021/01/15 07:09:31;;;;;;;;;;;;;;;4.02;96.45;101601.28;6121534;23;19912;-76
2021/01/15 07:11:59;;;;;;;;;;;;;;;4.05;96.39;101611.00;6140351;23;19912;-75
2021/01/15 07:14:44;;;;;;;;;;;;;;;4.02;96.14;101605.97;6141038;23;19957;-76
2021/01/15 07:17:16;;;;;;;;;;;;;;;4.00;95.84;101608.91;6140882;23;19908;-76
2021/01/15 07:19:42;;;;;;;;;;;;;;;3.96;95.02;101623.34;6140629;23;19926;-76
2021/01/15 07:22:11;;;;;;;;;;;;;;;3.95;95.50;101621.66;6140635;23;19904;-75
2021/01/15 07:24:37;;;;;;;;;;;;;;;3.95;94.94;101622.47;6165393;23;19904;-75
2021/01/15 07:27:13;;;;;;;;;;;;;;;3.94;95.38;101619.97;6191750;23;19991;-77
2021/01/15 07:29:50;;;;;;;;;;;;;;;3.94;95.00;101625.47;6168112;23;19904;-76
2021/01/15 07:32:17;;;;;;;;;;;;;;;3.93;95.69;101630.13;6164513;23;19908;-76
2021/01/15 07:34:46;;;;;;;;;;;;;;;3.90;95.54;101632.47;6140706;23;19908;-76
2021/01/15 07:37:18;;;;;;;;;;;;;;;3.91;95.02;101626.75;6139663;23;19911;-76
2021/01/15 07:40:03;;;;;;;;;;;;;;;3.93;95.78;101626.56;6190346;23;20309;-76
2021/01/15 07:42:38;;;;;;;;;;;;;;;3.91;96.45;101623.16;6191734;23;19904;-76
2021/01/15 07:45:07;;;;;;;;;;;;;;;3.91;95.59;101631.41;6164858;23;19954;-76
2021/01/15 07:47:37;;;;;;;;;;;;;;;3.90;94.67;101635.22;6140552;23;20233;-76
2021/01/15 07:50:07;;;;;;;;;;;;;;;3.89;94.96;101633.53;6141904;23;19904;-75
2021/01/15 07:52:33;;;;;;;;;;;;;;;3.85;94.78;101643.31;6169448;23;19974;-76
2021/01/15 07:55:02;;;;;;;;;;;;;;;3.86;94.94;101650.47;6195135;23;19904;-76
2021/01/15 07:57:28;;;;;;;;;;;;;;;3.84;94.92;101653.44;6194905;23;19910;-75
2021/01/15 07:59:54;;;;;;;;;;;;;;;3.81;94.92;101657.47;6170289;23;19983;-76
2021/01/15 08:02:21;;;;;;;;;;;;;;;3.80;94.71;101669.53;6145509;23;19904;-76
2021/01/15 08:04:47;;;;;;;;;;;;;;;3.77;94.97;101675.47;6145915;23;19904;-76
2021/01/15 08:07:31;;;;;;;;;;;;;;;3.74;94.74;101681.41;6194565;23;19915;-76
2021/01/15 08:09:56;;;;;;;;;;;;;;;3.72;95.27;101683.53;6221163;23;20310;-76
2021/01/15 08:12:22;;;;;;;;;;;;;;;3.70;95.47;101693.88;6169717;23;19930;-76
2021/01/15 08:14:48;;;;;;;;;;;;;;;3.71;95.53;101692.84;6193103;23;19904;-76
2021/01/15 08:17:14;;;;;;;;;;;;;;;3.77;95.89;101702.09;6169383;23;19903;-76
2021/01/15 08:19:40;;;;;;;;;;;;;;;3.76;95.76;101694.91;6221176;23;19945;-76
2021/01/15 08:22:09;;;;;;;;;;;;;;;3.78;95.42;101701.88;6171148;23;19912;-76
2021/01/15 08:24:44;;;;;;;;;;;;;;;3.78;95.72;101701.88;6170351;23;19911;-76
2021/01/15 08:27:14;;;;;;;;;;;;;;;3.78;94.61;101710.13;6194504;23;20321;-76
2021/01/15 08:29:39;;;;;;;;;;;;;;;3.75;94.88;101713.31;6194348;23;19927;-77
2021/01/15 08:32:08;;;;;;;;;;;;;;;3.76;95.28;101714.16;6144717;23;20302;-76
2021/01/15 08:34:36;;;;;;;;;;;;;;;3.74;95.70;101719.88;6195499;23;19904;-76
2021/01/15 08:37:02;;;;;;;;;;;;;;;3.77;95.89;101726.84;6193590;23;19986;-76
2021/01/15 08:39:28;;;;;;;;;;;;;;;3.76;95.72;101726.00;6169252;23;19986;-76
2021/01/15 08:41:54;;;;;;;;;;;;;;;3.75;95.52;101732.53;6170093;23;19911;-76
2021/01/15 08:44:19;;;;;;;;;;;;;;;3.77;95.75;101729.59;6194487;23;19907;-76
2021/01/15 08:46:44;;;;;;;;;;;;;;;3.79;95.79;101738.47;6169220;23;20282;-77
2021/01/15 08:49:10;;;;;;;;;;;;;;;3.81;96.32;101745.41;6169567;23;19911;-76
2021/01/15 08:51:36;;;;;;;;;;;;;;;3.84;95.81;101746.88;6169587;23;20336;-75
2021/01/15 08:54:04;;;;;;;;;;;;;;;3.85;96.14;101739.50;6169810;23;19944;-76
2021/01/15 08:56:48;;;;;;;;;;;;;;;3.87;96.83;101745.59;6194682;23;19914;-77
2021/01/15 08:59:38;;;;;;;;;;;;;;;3.91;96.12;101746.84;6198548;23;19903;-76
2021/01/15 09:02:04;;;;;;;;;;;;;;;3.89;95.86;101757.22;6169277;23;19904;-76
2021/01/15 09:04:30;;;;;;;;;;;;;;;3.90;95.90;101748.75;6194396;23;19949;-76
2021/01/15 09:06:58;;;;;;;;;;;;;;;3.91;95.79;101749.59;6169993;23;19910;-76
2021/01/15 09:09:28;;;;;;;;;;;;;;;3.94;95.67;101746.41;6143225;23;19904;-76
2021/01/15 09:11:53;;;;;;;;;;;;;;;3.94;95.29;101752.75;6144177;23;20280;-76
2021/01/15 09:14:22;;;;;;;;;;;;;;;3.95;95.03;101753.59;6169128;23;19957;-76
2021/01/15 09:16:48;;;;;;;;;;;;;;;3.99;94.92;101757.59;6144668;23;19904;-76
2021/01/15 09:19:14;;;;;;;;;;;;;;;4.02;94.91;101759.91;6144038;23;19942;-76
2021/01/15 09:22:08;;;;;;;;;;;;;;;4.06;95.21;101761.13;6170529;23;19935;-76
2021/01/15 09:24:34;;;;;;;;;;;;;;;4.12;95.11;101776.75;6190033;23;19911;-76
2021/01/15 09:27:00;;;;;;;;;;;;;;;4.13;95.36;101761.94;6144670;23;19903;-76
2021/01/15 09:29:25;;;;;;;;;;;;;;;4.20;94.38;101765.47;6168891;23;19975;-76
2021/01/15 09:31:51;;;;;;;;;;;;;;;4.21;94.31;101767.19;6168566;23;19915;-76
2021/01/15 09:34:16;;;;;;;;;;;;;;;4.27;94.32;101762.72;6167800;23;19903;-76
2021/01/15 09:36:42;;;;;;;;;;;;;;;4.28;94.00;101780.03;6168873;23;20225;-76
2021/01/15 09:39:08;;;;;;;;;;;;;;;4.27;93.82;101790.22;6194126;23;20277;-76
2021/01/15 09:41:46;;;;;;;;;;;;;;;4.29;94.36;101788.09;6194044;23;19911;-76
2021/01/15 09:44:16;;;;;;;;;;;;;;;4.33;94.15;101786.56;6193633;23;19907;-76
2021/01/15 09:46:43;;;;;;;;;;;;;;;4.41;93.76;101790.97;6220331;23;19939;-76
2021/01/15 09:49:11;;;;;;;;;;;;;;;4.44;93.27;101791.38;6219677;23;19979;-76
2021/01/15 09:51:37;;;;;;;;;;;;;;;4.43;93.33;101780.56;6169016;23;20305;-76
2021/01/15 09:54:02;;;;;;;;;;;;;;;4.49;93.25;101787.97;6168984;23;19958;-76
2021/01/15 09:56:33;;;;;;;;;;;;;;;4.47;93.39;101796.41;6169395;23;19957;-75
2021/01/15 09:59:02;;;;;;;;;;;;;;;4.56;93.31;101805.25;6195028;23;19904;-76
2021/01/15 10:01:27;;;;;;;;;;;;;;;4.57;93.04;101800.56;6194026;23;20068;-76
2021/01/15 10:03:53;;;;;;;;;;;;;;;4.61;93.16;101818.34;6194002;23;19904;-76
2021/01/15 10:06:19;;;;;;;;;;;;;;;4.68;92.87;101819.13;6144401;23;19935;-76
2021/01/15 10:08:47;;;;;;;;;;;;;;;4.69;93.01;101818.91;6170016;23;19903;-76
2021/01/15 10:11:24;;;;;;;;;;;;;;;4.73;93.39;101834.97;6193765;23;20030;-76
2021/01/15 10:13:52;;;;;;;;;;;;;;;4.81;93.04;101840.22;6144121;23;19907;-76
2021/01/15 10:16:21;;;;;;;;;;;;;;;4.85;92.85;101844.22;6169757;23;19907;-76
2021/01/15 10:18:46;;;;;;;;;;;;;;;4.90;92.29;101847.13;6168792;23;19910;-76
2021/01/15 10:21:12;;;;;;;;;;;;;;;4.90;92.46;101844.38;6144669;23;19904;-77
2021/01/15 10:23:39;;;;;;;;;;;;;;;4.94;92.61;101851.13;6193501;23;19904;-76
2021/01/15 10:26:05;;;;;;;;;;;;;;;4.99;92.21;101853.22;6169077;23;19919;-76
2021/01/15 10:28:31;;;;;;;;;;;;;;;4.97;92.30;101849.84;6168601;23;19908;-76
2021/01/15 10:30:56;;;;;;;;;;;;;;;5.01;91.97;101845.56;6169332;23;19938;-76
2021/01/15 10:33:22;;;;;;;;;;;;;;;5.03;92.17;101846.19;6168164;23;19912;-76
2021/01/15 10:35:48;;;;;;;;;;;;;;;5.02;91.90;101856.34;6168107;23;19911;-76
2021/01/15 10:38:16;;;;;;;;;;;;;;;4.99;91.13;101847.72;6194228;23;20286;-76
2021/01/15 10:40:44;;;;;;;;;;;;;;;5.02;91.34;101853.59;6196260;23;20264;-76
2021/01/15 10:43:10;;;;;;;;;;;;;;;5.02;91.48;101867.38;6195347;23;20310;-76
2021/01/15 10:45:36;;;;;;;;;;;;;;;4.98;91.41;101863.38;6222088;23;19994;-76
2021/01/15 10:48:03;;;;;;;;;;;;;;;5.01;90.90;101867.56;6195335;23;19907;-76
2021/01/15 10:50:29;;;;;;;;;;;;;;;4.99;90.99;101867.81;6171685;23;19904;-76
2021/01/15 10:52:54;;;;;;;;;;;;;;;4.98;91.21;101879.03;6145654;23;19912;-76
2021/01/15 10:55:20;;;;;;;;;;;;;;;5.00;91.51;101885.19;6195502;23;19912;-76
2021/01/15 10:57:45;;;;;;;;;;;;;;;4.97;91.66;101877.38;6222144;23;19911;-76
2021/01/15 11:00:12;;;;;;;;;;;;;;;4.96;91.46;101883.91;6195519;23;20372;-76
2021/01/15 11:02:37;;;;;;;;;;;;;;;4.92;91.63;101889.03;6169898;23;19907;-76
2021/01/15 11:05:02;;;;;;;;;;;;;;;4.91;91.68;101887.38;6195173;23;19942;-76
2021/01/15 11:07:28;;;;;;;;;;;;;;;4.95;91.87;101887.75;6195441;23;19907;-75
2021/01/15 11:09:56;;;;;;;;;;;;;;;4.92;91.39;101883.53;6170745;23;19935;-76
2021/01/15 11:12:21;;;;;;;;;;;;;;;4.91;91.00;101881.84;6145983;23;19920;-76
2021/01/15 11:14:46;;;;;;;;;;;;;;;4.93;90.93;101880.56;6195357;23;19904;-76
2021/01/15 11:17:14;;;;;;;;;;;;;;;4.92;91.13;101880.78;6194941;23;19927;-76
2021/01/15 11:19:43;;;;;;;;;;;;;;;4.92;91.06;101889.88;6196412;23;19908;-76
2021/01/15 11:22:08;;;;;;;;;;;;;;;4.96;90.74;101879.28;6170491;23;19904;-76
2021/01/15 11:24:34;;;;;;;;;;;;;;;5.01;89.95;101884.09;6221633;23;19904;-76
2021/01/15 11:27:01;;;;;;;;;;;;;;;5.02;89.85;101877.53;6195323;23;20301;-76
2021/01/15 11:29:27;;;;;;;;;;;;;;;5.04;89.11;101878.13;6221967;23;19979;-76
2021/01/15 11:31:52;;;;;;;;;;;;;;;5.04;88.29;101884.53;6169441;23;19908;-76
2021/01/15 11:34:22;;;;;;;;;;;;;;;5.06;88.06;101876.00;6195244;23;19904;-76
2021/01/15 11:36:50;;;;;;;;;;;;;;;5.09;88.37;101870.06;6170137;23;19981;-76
2021/01/15 11:39:21;;;;;;;;;;;;;;;5.11;88.76;101874.28;6195881;23;19904;-76
2021/01/15 11:41:51;;;;;;;;;;;;;;;5.15;88.90;101878.28;6195535;23;19904;-75
2021/01/15 11:44:17;;;;;;;;;;;;;;;5.19;88.05;101870.41;6169903;23;19910;-75
2021/01/15 11:46:44;;;;;;;;;;;;;;;5.22;88.47;101869.13;6221112;23;20289;-75
2021/01/15 11:49:10;;;;;;;;;;;;;;;5.24;88.60;101870.56;6170523;23;19904;-75
2021/01/15 11:51:35;;;;;;;;;;;;;;;5.25;88.59;101864.00;6170081;23;19911;-75
2021/01/15 11:54:01;;;;;;;;;;;;;;;5.27;87.48;101866.53;6147681;23;19923;-75
2021/01/15 11:56:26;;;;;;;;;;;;;;;5.34;87.27;101868.13;6165060;23;20289;-75
2021/01/15 11:58:52;;;;;;;;;;;;;;;5.36;85.98;101865.16;6140666;23;19931;-75
2021/01/15 12:01:20;;;;;;;;;;;;;;;5.33;85.61;101860.13;6164720;23;19904;-75
2021/01/15 12:03:51;;;;;;;;;;;;;;;5.38;85.99;101852.00;6191310;23;19911;-75
2021/01/15 12:06:16;;;;;;;;;;;;;;;5.47;86.86;101860.81;6164937;23;19935;-75
2021/01/15 12:08:44;;;;;;;;;;;;;;;5.52;86.14;101859.06;6166195;23;19904;-75
2021/01/15 12:11:10;;;;;;;;;;;;;;;5.56;85.21;101864.97;6139954;23;19910;-75
2021/01/15 12:13:35;;;;;;;;;;;;;;;5.65;85.20;101857.25;6140147;23;19909;-75
2021/01/15 12:16:01;;;;;;;;;;;;;;;5.67;85.30;101858.69;6191020;23;19915;-75
2021/01/15 12:18:27;;;;;;;;;;;;;;;5.71;85.32;101853.56;6115308;23;19935;-75
2021/01/15 12:20:53;;;;;;;;;;;;;;;5.78;85.50;101857.94;6140232;23;19927;-75
2021/01/15 12:23:18;;;;;;;;;;;;;;;5.77;84.27;101855.44;6140520;23;20233;-75
2021/01/15 12:25:51;;;;;;;;;;;;;;;5.80;84.12;101854.97;6166218;23;19943;-75
2021/01/15 12:28:20;;;;;;;;;;;;;;;5.85;84.35;101855.13;6140188;23;19908;-75
2021/01/15 12:30:45;;;;;;;;;;;;;;;5.88;83.27;101851.03;6141396;23;20237;-75
2021/01/15 12:33:13;;;;;;;;;;;;;;;5.90;83.68;101849.75;6164287;23;19963;-75
2021/01/15 12:35:42;;;;;;;;;;;;;;;5.94;83.69;101851.00;6115629;23;19904;-75
2021/01/15 12:38:08;;;;;;;;;;;;;;;5.96;82.67;101848.00;6140036;23;20321;-75
2021/01/15 12:40:33;;;;;;;;;;;;;;;5.88;81.45;101835.38;6140037;23;19904;-75
2021/01/15 12:42:59;;;;;;;;;;;;;;;5.93;80.66;101843.78;6139287;23;19912;-75
2021/01/15 12:45:27;;;;;;;;;;;;;;;5.91;81.13;101837.66;6140028;23;19908;-75
2021/01/15 12:47:52;;;;;;;;;;;;;;;5.89;81.25;101845.31;6139490;23;19911;-75
2021/01/15 12:50:18;;;;;;;;;;;;;;;5.88;81.21;101842.75;6138854;23;20308;-75